createdAt,value
2019-05-03T00:01:45.786Z,3.08
2019-05-03T00:04:16.298Z,3.08
2019-05-03T00:06:45.009Z,2.55
2019-05-03T00:09:16.160Z,2.90
2019-05-03T00:11:45.285Z,2.80
2019-05-03T00:14:14.703Z,3.20
2019-05-03T00:16:45.093Z,3.65
2019-05-03T00:19:13.810Z,3.00
2019-05-03T00:21:42.594Z,2.87
2019-05-03T00:24:11.986Z,2.90
2019-05-03T00:26:42.304Z,2.70
2019-05-03T00:29:12.730Z,2.40
2019-05-03T00:31:42.361Z,3.10
2019-05-03T00:34:15.987Z,2.80
2019-05-03T00:36:46.781Z,2.45
2019-05-03T00:39:17.070Z,3.00
2019-05-03T00:41:46.701Z,2.42
2019-05-03T00:44:17.993Z,3.08
2019-05-03T00:46:46.703Z,2.87
2019-05-03T00:49:15.827Z,2.87
2019-05-03T00:51:45.584Z,2.80
2019-05-03T00:54:14.304Z,3.10
2019-05-03T00:56:44.532Z,2.75
2019-05-03T00:59:14.192Z,3.00
2019-05-03T01:01:42.901Z,2.65
2019-05-03T01:04:11.935Z,3.15
2019-05-03T01:06:42.378Z,2.70
2019-05-03T01:09:14.051Z,3.33
2019-05-03T01:11:42.767Z,3.37
2019-05-03T01:14:12.806Z,3.17
2019-05-03T01:16:42.755Z,2.83
2019-05-03T01:19:12.088Z,3.20
2019-05-03T01:21:42.260Z,3.50
2019-05-03T01:24:12.317Z,3.27
2019-05-03T01:26:42.046Z,3.58
2019-05-03T01:29:12.233Z,3.00
2019-05-03T01:31:42.160Z,3.42
2019-05-03T01:34:12.510Z,3.45
2019-05-03T01:36:42.795Z,3.98
2019-05-03T01:39:12.739Z,3.12
2019-05-03T01:41:41.814Z,2.90
2019-05-03T01:44:12.504Z,3.45
2019-05-03T01:46:42.188Z,3.40
2019-05-03T01:49:12.768Z,3.58
2019-05-03T01:51:44.731Z,3.70
2019-05-03T01:54:13.453Z,3.30
2019-05-03T01:56:55.317Z,2.83
2019-05-03T01:59:13.542Z,3.10
2019-05-03T02:02:02.331Z,3.02
2019-05-03T02:04:39.489Z,4.08
2019-05-03T02:07:08.197Z,3.47
2019-05-03T02:09:36.912Z,3.70
2019-05-03T02:12:06.538Z,2.92
2019-05-03T02:14:35.415Z,3.10
2019-05-03T02:17:05.049Z,3.75
2019-05-03T02:19:34.256Z,3.02
2019-05-03T02:22:03.004Z,3.65
2019-05-03T02:24:32.730Z,3.47
2019-05-03T02:27:02.259Z,3.20
2019-05-03T02:29:32.582Z,3.17
2019-05-03T02:32:05.422Z,3.42
2019-05-03T02:34:35.062Z,4.08
2019-05-03T02:37:03.773Z,3.77
2019-05-03T02:39:33.610Z,3.90
2019-05-03T02:42:07.876Z,3.52
2019-05-03T02:44:35.557Z,3.30
2019-05-03T02:47:22.697Z,3.70
2019-05-03T02:49:56.296Z,3.50
2019-05-03T02:52:36.943Z,3.40
2019-05-03T02:55:08.213Z,3.92
2019-05-03T02:57:36.916Z,3.33
2019-05-03T03:00:11.673Z,3.75
2019-05-03T03:02:41.173Z,3.80
2019-05-03T03:05:10.620Z,3.62
2019-05-03T03:07:40.770Z,4.35
2019-05-03T03:10:10.606Z,4.12
2019-05-03T03:12:46.229Z,4.50
2019-05-03T03:17:45.739Z,3.45
2019-05-03T03:20:16.133Z,4.00
2019-05-03T03:22:47.336Z,4.47
2019-05-03T03:25:17.888Z,4.17
2019-05-03T03:27:48.349Z,3.65
2019-05-03T03:30:40.509Z,4.30
2019-05-03T03:33:17.169Z,4.12
2019-05-03T03:35:48.926Z,4.40
2019-05-03T03:38:15.731Z,4.20
2019-05-03T03:40:46.294Z,4.20
2019-05-03T03:43:17.982Z,4.30
2019-05-03T03:45:48.090Z,4.33
2019-05-03T03:48:20.282Z,5.00
2019-05-03T03:50:51.771Z,3.67
2019-05-03T03:53:23.188Z,4.10
2019-05-03T03:55:56.362Z,4.00
2019-05-03T03:58:27.057Z,4.60
2019-05-03T04:00:56.075Z,4.17
2019-05-03T04:03:26.005Z,4.30
2019-05-03T04:05:55.850Z,4.67
2019-05-03T04:08:25.242Z,4.72
2019-05-03T04:10:55.839Z,4.37
2019-05-03T04:13:26.977Z,4.97
2019-05-03T04:16:17.040Z,4.97
2019-05-03T04:18:48.368Z,4.40
2019-05-03T04:21:17.445Z,3.87
2019-05-03T04:23:46.383Z,4.42
2019-05-03T04:26:16.409Z,4.90
2019-05-03T04:28:45.495Z,4.92
2019-05-03T04:31:15.356Z,4.70
2019-05-03T04:33:45.084Z,5.03
2019-05-03T04:36:15.898Z,4.53
2019-05-03T04:38:45.345Z,4.28
2019-05-03T04:41:16.025Z,4.67
2019-05-03T04:43:46.010Z,4.55
2019-05-03T04:46:19.598Z,4.78
2019-05-03T04:48:48.314Z,4.10
2019-05-03T04:51:16.955Z,4.42
2019-05-03T04:53:47.493Z,5.50
2019-05-03T04:56:17.045Z,4.87
2019-05-03T04:58:46.069Z,4.60
2019-05-03T05:01:15.826Z,4.60
2019-05-03T05:03:45.700Z,4.47
2019-05-03T05:06:15.425Z,4.85
2019-05-03T05:08:46.040Z,4.15
2019-05-03T05:11:15.768Z,4.28
2019-05-03T05:13:45.742Z,4.40
2019-05-03T05:16:16.050Z,4.17
2019-05-03T05:18:46.466Z,4.40
2019-05-03T05:21:25.728Z,4.95
2019-05-03T05:24:02.268Z,4.10
2019-05-03T05:26:35.209Z,4.10
2019-05-03T05:29:07.811Z,4.25
2019-05-03T05:31:36.868Z,4.37
2019-05-03T05:34:08.833Z,4.25
2019-05-03T05:36:37.154Z,4.30
2019-05-03T05:39:08.671Z,4.60
2019-05-03T05:41:38.059Z,4.47
2019-05-03T05:44:06.909Z,4.22
2019-05-03T05:46:37.201Z,3.55
2019-05-03T05:49:08.927Z,3.67
2019-05-03T05:51:39.093Z,4.50
2019-05-03T05:54:07.929Z,3.77
2019-05-03T05:56:50.219Z,4.30
2019-05-03T05:59:36.632Z,4.05
2019-05-03T06:02:07.369Z,3.50
2019-05-03T06:04:36.322Z,3.77
2019-05-03T06:07:06.613Z,4.87
2019-05-03T06:09:39.970Z,3.62
2019-05-03T06:12:10.297Z,3.67
2019-05-03T06:14:45.939Z,4.22
2019-05-03T06:17:16.261Z,4.17
2019-05-03T06:19:49.348Z,4.30
2019-05-03T06:22:20.242Z,4.63
2019-05-03T06:24:54.369Z,4.40
2019-05-03T06:27:26.170Z,4.25
2019-05-03T06:29:56.912Z,3.90
2019-05-03T06:32:27.209Z,4.62
2019-05-03T06:34:57.750Z,4.95
2019-05-03T06:37:37.522Z,3.83
2019-05-03T06:40:07.708Z,3.95
2019-05-03T06:42:36.688Z,3.92
2019-05-03T06:45:10.193Z,4.53
2019-05-03T06:47:40.364Z,4.00
2019-05-03T06:50:10.427Z,4.22
2019-05-03T06:52:39.210Z,5.70
2019-05-03T06:55:10.610Z,4.53
2019-05-03T06:57:45.529Z,4.60
2019-05-03T07:00:16.392Z,4.42
2019-05-03T07:02:46.744Z,3.90
2019-05-03T07:05:24.995Z,4.03
2019-05-03T07:07:55.234Z,4.03
2019-05-03T07:10:25.528Z,4.17
2019-05-03T07:13:04.967Z,3.83
2019-05-03T07:15:35.187Z,3.55
2019-05-03T07:18:05.758Z,3.60
2019-05-03T07:20:45.938Z,3.40
2019-05-03T07:23:15.652Z,3.92
2019-05-03T07:25:44.852Z,4.55
2019-05-03T07:28:15.680Z,4.70
2019-05-03T07:30:45.344Z,4.25
2019-05-03T07:33:18.677Z,4.12
2019-05-03T07:35:47.565Z,3.77
2019-05-03T07:38:16.214Z,3.83
2019-05-03T07:40:44.938Z,5.15
2019-05-03T07:43:15.032Z,6.10
2019-05-03T07:45:44.764Z,3.80
2019-05-03T07:48:15.028Z,3.95
2019-05-03T07:50:44.803Z,3.75
2019-05-03T07:53:15.002Z,4.33
2019-05-03T07:55:52.249Z,4.45
2019-05-03T07:58:22.529Z,3.83
2019-05-03T08:01:05.799Z,4.35
2019-05-03T08:03:24.432Z,4.22
2019-05-03T08:05:55.205Z,4.97
2019-05-03T08:08:25.048Z,4.50
2019-05-03T08:10:55.099Z,5.03
2019-05-03T08:13:25.269Z,4.50
2019-05-03T08:15:55.726Z,4.78
2019-05-03T08:18:25.638Z,5.22
2019-05-03T08:20:55.646Z,4.65
2019-05-03T08:23:29.940Z,4.08
2019-05-03T08:25:56.589Z,4.45
2019-05-03T08:28:25.570Z,4.30
2019-05-03T08:30:58.414Z,4.62
2019-05-03T08:33:28.824Z,5.35
2019-05-03T08:35:57.537Z,4.83
2019-05-03T08:38:26.255Z,5.85
2019-05-03T08:40:56.978Z,4.75
2019-05-03T08:43:25.666Z,4.22
2019-05-03T08:45:55.381Z,4.28
2019-05-03T08:48:25.125Z,5.03
2019-05-03T08:50:55.452Z,4.75
2019-05-03T08:53:25.627Z,5.80
2019-05-03T08:55:55.641Z,4.08
2019-05-03T08:58:25.816Z,5.50
2019-05-03T09:00:55.336Z,4.33
2019-05-03T09:03:25.083Z,4.03
2019-05-03T09:05:56.484Z,3.95
2019-05-03T09:08:24.954Z,3.80
2019-05-03T09:10:59.064Z,3.98
2019-05-03T09:13:29.360Z,3.90
2019-05-03T09:15:59.330Z,3.35
2019-05-03T09:18:28.315Z,3.67
2019-05-03T09:20:57.033Z,3.60
2019-05-03T09:23:26.136Z,2.67
2019-05-03T09:25:56.233Z,3.33
2019-05-03T09:28:28.817Z,3.00
2019-05-03T09:30:55.856Z,2.98
2019-05-03T09:33:25.009Z,2.67
2019-05-03T09:35:55.026Z,2.65
2019-05-03T09:38:25.666Z,2.70
2019-05-03T09:40:54.653Z,3.02
2019-05-03T09:43:25.043Z,2.67
2019-05-03T09:45:54.858Z,2.85
2019-05-03T09:48:25.496Z,3.40
2019-05-03T09:50:55.585Z,2.90
2019-05-03T09:53:26.429Z,2.60
2019-05-03T09:55:55.720Z,3.02
2019-05-03T09:58:26.369Z,2.60
2019-05-03T10:00:55.585Z,2.77
2019-05-03T10:03:24.954Z,2.12
2019-05-03T10:05:55.375Z,1.70
2019-05-03T10:08:25.430Z,2.00
2019-05-03T10:11:15.518Z,2.60
2019-05-03T10:13:47.376Z,2.55
2019-05-03T10:16:15.593Z,2.08
2019-05-03T10:18:45.957Z,2.17
2019-05-03T10:21:15.227Z,2.87
2019-05-03T10:23:45.160Z,2.80
2019-05-03T10:26:15.298Z,3.50
2019-05-03T10:28:44.690Z,2.80
2019-05-03T10:31:14.648Z,2.87
2019-05-03T10:33:54.841Z,3.98
2019-05-03T10:36:24.981Z,3.60
2019-05-03T10:38:55.382Z,3.25
2019-05-03T10:41:25.686Z,3.33
2019-05-03T10:43:56.373Z,3.10
2019-05-03T10:46:25.227Z,3.12
2019-05-03T10:48:55.806Z,2.70
2019-05-03T10:51:26.420Z,3.33
2019-05-03T10:53:56.958Z,3.42
2019-05-03T10:56:37.547Z,3.47
2019-05-03T10:59:10.742Z,3.62
2019-05-03T11:01:45.274Z,3.45
2019-05-03T11:04:14.739Z,2.95
2019-05-03T11:06:45.712Z,3.10
2019-05-03T11:09:15.256Z,3.17
2019-05-03T11:11:45.316Z,2.98
2019-05-03T11:14:14.981Z,3.60
2019-05-03T11:16:46.315Z,2.67
2019-05-03T11:19:15.468Z,3.20
2019-05-03T11:21:45.474Z,2.98
2019-05-03T11:24:14.871Z,2.20
2019-05-03T11:26:45.658Z,2.80
2019-05-03T11:29:17.679Z,2.22
2019-05-03T11:32:00.217Z,2.40
2019-05-03T11:34:37.483Z,2.20
2019-05-03T11:37:07.774Z,2.60
2019-05-03T11:39:36.812Z,2.55
2019-05-03T11:42:06.207Z,2.62
2019-05-03T11:44:38.565Z,2.72
2019-05-03T11:47:09.511Z,2.27
2019-05-03T11:49:39.436Z,4.92
2019-05-03T11:52:08.462Z,3.05
2019-05-03T11:54:37.364Z,2.35
2019-05-03T11:57:26.417Z,2.10
2019-05-03T11:59:55.493Z,2.75
2019-05-03T12:02:28.962Z,2.62
2019-05-03T12:04:59.829Z,3.85
2019-05-03T12:07:39.586Z,3.33
2019-05-03T12:10:17.127Z,2.90
2019-05-03T12:12:55.407Z,2.55
2019-05-03T12:15:24.626Z,2.70
2019-05-03T12:17:59.231Z,1.82
2019-05-03T12:20:30.688Z,2.42
2019-05-03T12:23:00.022Z,2.50
2019-05-03T12:25:29.907Z,2.42
2019-05-03T12:27:59.414Z,2.70
2019-05-03T12:30:28.126Z,3.10
2019-05-03T12:32:57.057Z,2.85
2019-05-03T12:35:26.134Z,3.70
2019-05-03T12:37:55.535Z,3.85
2019-05-03T12:40:25.480Z,4.17
2019-05-03T12:42:55.417Z,3.70
2019-05-03T12:45:25.103Z,3.33
2019-05-03T12:47:55.928Z,3.22
2019-05-03T12:50:25.564Z,3.02
2019-05-03T12:52:55.444Z,3.15
2019-05-03T12:55:24.936Z,2.60
2019-05-03T12:57:55.748Z,2.62
2019-05-03T13:00:29.822Z,3.08
2019-05-03T13:03:09.457Z,3.33
2019-05-03T13:05:38.166Z,2.50
2019-05-03T13:08:32.430Z,2.80
2019-05-03T13:11:01.470Z,2.70
2019-05-03T13:13:30.561Z,3.15
2019-05-03T13:15:59.406Z,3.47
2019-05-03T13:18:28.356Z,3.08
2019-05-03T13:20:57.091Z,4.15
2019-05-03T13:23:26.079Z,3.17
2019-05-03T13:25:54.851Z,3.67
2019-05-03T13:28:25.454Z,3.12
2019-05-03T13:30:54.669Z,2.92
2019-05-03T13:33:23.547Z,3.42
2019-05-03T13:35:52.238Z,3.02
2019-05-03T13:38:21.171Z,2.85
2019-05-03T13:40:49.898Z,2.92
2019-05-03T13:43:18.539Z,2.52
2019-05-03T13:45:47.910Z,3.42
2019-05-03T13:48:20.872Z,3.08
2019-05-03T13:50:46.930Z,2.67
2019-05-03T13:53:16.136Z,2.95
2019-05-03T13:55:45.206Z,3.10
2019-05-03T13:58:14.818Z,4.15
2019-05-03T14:00:45.367Z,2.95
2019-05-03T14:03:15.237Z,3.33
2019-05-03T14:05:44.675Z,2.90
2019-05-03T14:08:15.689Z,3.42
2019-05-03T14:10:45.512Z,2.65
2019-05-03T14:13:14.554Z,2.95
2019-05-03T14:15:45.313Z,3.00
2019-05-03T14:18:15.308Z,2.83
2019-05-03T14:20:59.601Z,2.77
2019-05-03T14:23:28.679Z,3.40
2019-05-03T14:25:57.560Z,3.22
2019-05-03T14:28:26.269Z,2.65
2019-05-03T14:30:55.049Z,2.80
2019-05-03T14:33:24.840Z,2.98
2019-05-03T14:35:54.854Z,2.15
2019-05-03T14:38:25.455Z,2.30
2019-05-03T14:40:55.038Z,2.87
2019-05-03T14:43:24.882Z,2.33
2019-05-03T14:45:55.005Z,2.33
2019-05-03T14:48:25.417Z,2.08
2019-05-03T14:50:57.267Z,2.40
2019-05-03T14:53:25.530Z,1.82
2019-05-03T14:55:56.123Z,2.55
2019-05-03T14:58:38.741Z,2.30
2019-05-03T15:01:09.328Z,1.80
2019-05-03T15:03:38.049Z,2.12
2019-05-03T15:06:06.941Z,2.33
2019-05-03T15:08:35.584Z,2.25
2019-05-03T15:11:05.317Z,2.22
2019-05-03T15:13:34.973Z,2.77
2019-05-03T15:16:05.266Z,2.05
2019-05-03T15:18:34.815Z,2.45
2019-05-03T15:21:05.493Z,2.55
2019-05-03T15:23:34.809Z,2.58
2019-05-03T15:26:05.150Z,2.27
2019-05-03T15:28:35.568Z,2.20
2019-05-03T15:31:05.020Z,1.82
2019-05-03T15:33:35.320Z,2.83
2019-05-03T15:36:04.896Z,3.95
2019-05-03T15:38:34.583Z,3.60
2019-05-03T15:41:05.440Z,1.85
2019-05-03T15:43:45.459Z,2.05
2019-05-03T15:46:31.075Z,2.05
2019-05-03T15:49:01.880Z,2.00
2019-05-03T15:51:30.603Z,2.00
2019-05-03T15:53:59.717Z,1.77
2019-05-03T15:56:28.476Z,1.77
2019-05-03T15:58:57.119Z,2.52
2019-05-03T16:01:25.914Z,2.33
2019-05-03T16:03:55.647Z,2.42
2019-05-03T16:06:24.963Z,2.60
2019-05-03T16:08:55.270Z,2.10
2019-05-03T16:11:25.366Z,2.30
2019-05-03T16:13:55.373Z,2.25
2019-05-03T16:16:24.836Z,1.75
2019-05-03T16:18:54.099Z,2.30
2019-05-03T16:21:25.040Z,1.75
2019-05-03T16:23:55.499Z,2.17
2019-05-03T16:26:25.162Z,1.75
2019-05-03T16:28:55.735Z,1.82
2019-05-03T16:31:26.600Z,1.87
2019-05-03T16:33:55.712Z,1.65
2019-05-03T16:36:24.528Z,2.70
2019-05-03T16:38:55.284Z,2.10
2019-05-03T16:41:24.872Z,1.95
2019-05-03T16:43:54.295Z,2.00
2019-05-03T16:46:23.005Z,2.40
2019-05-03T16:48:51.818Z,2.20
2019-05-03T16:51:21.777Z,2.00
2019-05-03T16:53:50.872Z,2.20
2019-05-03T16:56:20.620Z,2.37
2019-05-03T16:58:49.553Z,2.00
2019-05-03T17:01:18.354Z,2.52
2019-05-03T17:03:50.116Z,1.70
2019-05-03T17:06:34.857Z,2.40
2019-05-03T17:09:15.474Z,2.08
2019-05-03T17:11:46.157Z,1.67
2019-05-03T17:14:15.513Z,2.05
2019-05-03T17:16:45.445Z,1.55
2019-05-03T17:19:14.750Z,2.30
2019-05-03T17:21:45.301Z,2.02
2019-05-03T17:24:15.494Z,2.52
2019-05-03T17:26:45.003Z,2.12
2019-05-03T17:29:13.729Z,1.80
2019-05-03T17:31:44.487Z,2.70
2019-05-03T17:34:14.493Z,2.27
2019-05-03T17:36:44.966Z,1.95
2019-05-03T17:39:32.349Z,4.33
2019-05-03T17:44:54.561Z,1.95
2019-05-03T17:47:25.501Z,2.37
2019-05-03T17:49:54.631Z,2.60
2019-05-03T17:52:41.992Z,3.10
2019-05-03T17:55:24.460Z,2.37
2019-05-03T17:58:04.485Z,2.47
2019-05-03T18:00:52.900Z,2.65
2019-05-03T18:03:23.401Z,4.08
2019-05-03T18:05:53.681Z,2.30
2019-05-03T18:08:25.008Z,2.45
2019-05-03T18:10:55.898Z,2.27
2019-05-03T18:13:24.821Z,2.52
2019-05-03T18:15:54.358Z,2.45
2019-05-03T18:18:24.705Z,2.55
2019-05-03T18:20:55.491Z,2.52
2019-05-03T18:23:24.686Z,3.08
2019-05-03T18:25:54.885Z,2.95
2019-05-03T18:28:25.000Z,2.75
2019-05-03T18:30:54.724Z,2.62
2019-05-03T18:33:24.698Z,3.08
2019-05-03T18:35:55.048Z,3.20
2019-05-03T18:38:25.390Z,2.80
2019-05-03T18:40:55.593Z,2.70
2019-05-03T18:43:26.614Z,2.75
2019-05-03T18:46:06.357Z,2.45
2019-05-03T18:48:35.001Z,3.05
2019-05-03T18:51:05.327Z,3.85
2019-05-03T18:53:34.585Z,2.92
2019-05-03T18:56:04.603Z,2.77
2019-05-03T18:58:33.510Z,3.67
2019-05-03T19:01:03.057Z,2.72
2019-05-03T19:03:31.857Z,5.03
2019-05-03T19:06:09.043Z,3.50
2019-05-03T19:08:42.143Z,3.25
2019-05-03T19:11:15.022Z,3.27
2019-05-03T19:13:47.868Z,3.90
2019-05-03T19:16:18.165Z,3.83
2019-05-03T19:18:46.820Z,3.70
2019-05-03T19:21:15.894Z,3.95
2019-05-03T19:23:44.843Z,3.47
2019-05-03T19:26:14.454Z,3.30
2019-05-03T19:28:44.456Z,3.80
2019-05-03T19:31:13.494Z,3.80
2019-05-03T19:33:42.383Z,3.87
2019-05-03T19:36:11.695Z,3.30
2019-05-03T19:38:40.641Z,4.03
2019-05-03T19:41:09.633Z,4.45
2019-05-03T19:43:39.268Z,4.00
2019-05-03T19:46:08.263Z,4.10
2019-05-03T19:48:36.954Z,4.30
2019-05-03T19:51:06.549Z,4.78
2019-05-03T19:53:37.774Z,4.70
2019-05-03T19:56:07.299Z,4.15
2019-05-03T19:58:37.536Z,4.22
2019-05-03T20:01:07.842Z,5.05
2019-05-03T20:03:41.568Z,4.53
2019-05-03T20:06:20.823Z,4.85
2019-05-03T20:08:54.207Z,4.65
2019-05-03T20:11:25.052Z,4.83
2019-05-03T20:13:55.222Z,4.45
2019-05-03T20:16:24.225Z,4.75
2019-05-03T20:18:55.395Z,4.37
2019-05-03T20:21:25.283Z,5.30
2019-05-03T20:23:55.550Z,5.28
2019-05-03T20:26:25.298Z,5.30
2019-05-03T20:28:55.313Z,4.97
2019-05-03T20:31:25.287Z,5.22
2019-05-03T20:33:54.887Z,4.90
2019-05-03T20:36:24.674Z,4.97
2019-05-03T20:38:55.086Z,5.35
2019-05-03T20:41:25.555Z,5.08
2019-05-03T20:44:00.037Z,8.53
2019-05-03T20:46:40.583Z,7.83
2019-05-03T20:49:11.419Z,5.80
2019-05-03T20:53:25.145Z,4.87
2019-05-03T20:55:56.203Z,4.45
2019-05-03T20:58:26.967Z,5.12
2019-05-03T21:00:58.689Z,4.58
2019-05-03T21:03:29.087Z,5.35
2019-05-03T21:06:02.216Z,5.55
2019-05-03T21:08:34.632Z,5.17
2019-05-03T21:11:07.558Z,5.70
2019-05-03T21:13:41.892Z,5.10
2019-05-03T21:16:15.686Z,6.08
2019-05-03T21:19:00.028Z,5.92
2019-05-03T21:21:32.328Z,5.30
2019-05-03T21:24:07.021Z,5.65
2019-05-03T21:26:39.066Z,5.67
2019-05-03T21:29:10.000Z,6.20
2019-05-03T21:31:40.928Z,5.58
2019-05-03T21:34:11.705Z,5.40
2019-05-03T21:36:42.474Z,5.97
2019-05-03T21:39:14.614Z,5.53
2019-05-03T21:41:45.429Z,6.00
2019-05-03T21:44:31.307Z,6.28
2019-05-03T21:47:04.932Z,6.45
2019-05-03T21:49:45.895Z,7.60
2019-05-03T21:52:17.134Z,7.45
2019-05-03T21:54:47.455Z,6.45
2019-05-03T21:57:19.309Z,7.80
2019-05-03T21:59:49.617Z,7.53
2019-05-03T22:02:21.626Z,8.75
2019-05-03T22:04:51.976Z,8.88
2019-05-03T22:07:22.827Z,8.08
2019-05-03T22:09:54.486Z,7.20
2019-05-03T22:12:26.171Z,6.85
2019-05-03T22:14:58.127Z,7.25
2019-05-03T22:17:46.839Z,6.92
2019-05-03T22:20:35.119Z,6.25
2019-05-03T22:23:10.358Z,5.55
2019-05-03T22:25:42.317Z,7.08
2019-05-03T22:28:15.546Z,6.62
2019-05-03T22:30:46.137Z,6.12
2019-05-03T22:33:17.793Z,6.45
2019-05-03T22:35:49.104Z,6.55
2019-05-03T22:38:19.826Z,7.20
2019-05-03T22:40:50.137Z,6.37
2019-05-03T22:43:22.055Z,7.15
2019-05-03T22:45:52.377Z,7.50
2019-05-03T22:48:24.987Z,7.58
2019-05-03T22:50:55.910Z,8.55
2019-05-03T22:53:26.181Z,7.08
2019-05-03T22:55:56.427Z,7.83
2019-05-03T22:58:27.046Z,7.42
2019-05-03T23:00:57.373Z,7.85
2019-05-03T23:03:29.565Z,8.40
2019-05-03T23:06:00.851Z,9.00
2019-05-03T23:08:34.570Z,8.08
2019-05-03T23:11:05.299Z,7.80
2019-05-03T23:13:36.263Z,8.13
2019-05-03T23:16:06.608Z,7.83
2019-05-03T23:18:39.871Z,7.47
2019-05-03T23:21:11.786Z,7.30
2019-05-03T23:23:48.932Z,7.67
2019-05-03T23:26:19.769Z,7.25
2019-05-03T23:28:52.743Z,7.60
2019-05-03T23:31:24.998Z,8.10
2019-05-03T23:33:55.950Z,8.13
2019-05-03T23:36:33.150Z,7.70
2019-05-03T23:39:00.490Z,8.45
2019-05-03T23:44:02.064Z,8.40
2019-05-03T23:46:36.662Z,8.40
2019-05-03T23:49:08.023Z,8.25
2019-05-03T23:51:52.374Z,7.67
2019-05-03T23:56:54.738Z,8.55
2019-05-03T23:59:25.265Z,8.93
